Portada
METAR-TAF:

METAR-TAF

Aeropuertos :

Jartum, Sudán

Aeropuerto Internacional de Jartum

latitud: 15-36N, longitud: 032-33E, altitud: 382 m

Observación

El informe se hizo hace 27 minutos, a las 18:00 UTC
Viento calma
Temperatura 37°C
Humedad 27%
Presión 1008 hPa
Visibilidad: 4000 m
calima

METAR: HSSS 221800Z 00000KT 4000 HZ 37/15 Q1008 TEMPO 2000HZ

Hora: 21:27 (18:27 UTC)

Pronóstico

El informe se hizo hace 1 hora y 27 minutos, a las 17:00 UTC
Pronóstico válido del 22 a las 18 UTC al 23 a las 24 UTC
Viento 3 kt con dirección variable
Visibilidad: 6000 m
Temporalmente
del 22 a las 18 UTC al 22 a las 24 UTC
Viento 6 kt del sur con ráfagas de 16 kt
Temporalmente
del 22 a las 19 UTC al 22 a las 24 UTC
Visibilidad: 2000 m
Ventisca alta de polvo

TAF: HSSS 221700Z 2218/2324 VRB03KT 6000 TEMPO 2218/2224 17006G16KT TEMPO 2219/2224 2000 BLDU

Observaciones y pronósticos meteorológicos de más de 4000 aeropuertos (mensajes METAR y TAF).

Los puntos amarillos y rojos representan las estaciones disponibles.

Ponga el ratón en el punto deseado para ver el nombre de la estación.

Haga clic para ver las observaciones y los pronósticos meteorológicos.

Para cambiar el mapa : haga clic en los botones verdes con una cruz de color negro para hacer un zoom, en el botón verde con un guión para alejar o en las flechas verdes para mapas adyacentes.


METAR-TAF: